Time;durP1;ratioP1;P1;durP2;ratioP2;P2;SDS_P1;SDS_P2;PMS_P1;PMS_P2;Temp;Humidity;BMP_temperature;BMP_pressure;BME280_temperature;BME280_humidity;BME280_pressure;Samples;Min_cycle;Max_cycle;Signal;HPM_P1;HPM_P2
2022/09/08 00:01:34;;;;;;;7.15;2.00;;;;;;;;;;5126465;27;20231;-12
2022/09/08 00:04:02;;;;;;;6.00;2.17;;;;;;;;;;5113958;27;20235;-12
2022/09/08 00:06:32;;;;;;;8.55;2.17;;;;;;;;;;5123078;27;20242;-13
2022/09/08 00:08:59;;;;;;;4.22;2.00;;;;;;;;;;5128419;27;20775;-12
2022/09/08 00:11:29;;;;;;;3.90;2.20;;;;;;;;;;5122424;27;20227;-13
2022/09/08 00:13:56;;;;;;;6.55;2.30;;;;;;;;;;5115147;27;20262;-11
2022/09/08 00:16:23;;;;;;;4.45;1.98;;;;;;;;;;5101493;27;20704;-13
2022/09/08 00:18:52;;;;;;;5.07;2.35;;;;;;;;;;5111183;27;20232;-13
2022/09/08 00:21:20;;;;;;;5.90;1.98;;;;;;;;;;5108827;27;20228;-12
2022/09/08 00:23:47;;;;;;;3.33;1.92;;;;;;;;;;5111145;27;20309;-13
2022/09/08 00:26:15;;;;;;;4.72;2.05;;;;;;;;;;5108879;27;20290;-12
2022/09/08 00:28:42;;;;;;;7.25;2.33;;;;;;;;;;5110461;28;20282;-12
2022/09/08 00:31:09;;;;;;;4.40;2.05;;;;;;;;;;5109656;27;20262;-13
2022/09/08 00:33:37;;;;;;;6.90;1.98;;;;;;;;;;5116658;27;20251;-12
2022/09/08 00:36:07;;;;;;;4.50;2.25;;;;;;;;;;5108627;27;20245;-13
2022/09/08 00:38:35;;;;;;;7.05;2.00;;;;;;;;;;5116639;27;20388;-12
2022/09/08 00:41:11;;;;;;;2.78;2.03;;;;;;;;;;5117166;27;20719;-11
2022/09/08 00:43:46;;;;;;;5.50;2.47;;;;;;;;;;5110912;27;20322;-13
2022/09/08 00:46:15;;;;;;;6.70;1.98;;;;;;;;;;5109350;27;20235;-12
2022/09/08 00:48:44;;;;;;;4.40;2.22;;;;;;;;;;5110579;27;20244;-13
2022/09/08 00:51:13;;;;;;;3.78;1.90;;;;;;;;;;5110299;27;20278;-13
2022/09/08 00:53:40;;;;;;;3.53;1.95;;;;;;;;;;5110018;27;20274;-13
2022/09/08 00:56:07;;;;;;;2.72;2.00;;;;;;;;;;5109907;27;20235;-12
2022/09/08 00:58:35;;;;;;;3.90;2.22;;;;;;;;;;5109385;27;20243;-13
2022/09/08 01:01:02;;;;;;;3.72;2.13;;;;;;;;;;5109677;27;20232;-12
2022/09/08 01:03:31;;;;;;;6.60;2.20;;;;;;;;;;5110208;27;20683;-12
2022/09/08 01:06:02;;;;;;;5.75;2.50;;;;;;;;;;5109921;27;20232;-12
2022/09/08 01:14:06;;;;;;;3.92;2.40;;;;;;;;;;5090003;27;20236;-11
2022/09/08 01:16:39;;;;;;;3.15;2.30;;;;;;;;;;5108818;28;20286;-13
2022/09/08 01:19:07;;;;;;;3.25;2.13;;;;;;;;;;5108617;27;20277;-12
2022/09/08 01:21:37;;;;;;;4.63;2.40;;;;;;;;;;5108852;27;20236;-13
2022/09/08 01:24:09;;;;;;;3.17;2.40;;;;;;;;;;5107787;27;20894;-11
2022/09/08 01:26:40;;;;;;;3.13;2.42;;;;;;;;;;5110711;27;20243;-13
2022/09/08 01:29:08;;;;;;;5.10;3.50;;;;;;;;;;5109995;27;20228;-12
2022/09/08 01:31:37;;;;;;;5.47;4.50;;;;;;;;;;5109769;27;20283;-12
2022/09/08 01:34:05;;;;;;;9.98;5.07;;;;;;;;;;5105367;28;20230;-13
2022/09/08 01:36:33;;;;;;;10.15;5.10;;;;;;;;;;5109408;27;20231;-12
2022/09/08 01:39:00;;;;;;;5.32;3.90;;;;;;;;;;5109944;27;20305;-10
2022/09/08 01:41:27;;;;;;;4.55;3.38;;;;;;;;;;5109530;27;20294;-11
2022/09/08 01:43:55;;;;;;;4.47;3.80;;;;;;;;;;5109690;27;20228;-12
2022/09/08 01:46:23;;;;;;;6.50;4.53;;;;;;;;;;5109258;27;20258;-13
2022/09/08 01:48:51;;;;;;;5.40;3.67;;;;;;;;;;5109615;27;20282;-12
2022/09/08 01:51:18;;;;;;;6.32;3.50;;;;;;;;;;5109178;27;20231;-10
2022/09/08 01:53:45;;;;;;;6.28;3.63;;;;;;;;;;5109649;27;20227;-12
2022/09/08 01:56:13;;;;;;;5.45;2.97;;;;;;;;;;5108569;27;20293;-12
2022/09/08 01:58:40;;;;;;;5.10;2.97;;;;;;;;;;5109459;27;20228;-13
2022/09/08 02:01:07;;;;;;;4.63;2.83;;;;;;;;;;5100440;27;20282;-12
2022/09/08 02:03:36;;;;;;;5.22;2.58;;;;;;;;;;5106097;28;21043;-12
2022/09/08 02:06:04;;;;;;;3.67;3.10;;;;;;;;;;5109366;27;20236;-12
2022/09/08 02:08:31;;;;;;;4.82;3.10;;;;;;;;;;5109343;27;20240;-10
2022/09/08 02:10:59;;;;;;;4.40;2.45;;;;;;;;;;5109097;27;20236;-11
2022/09/08 02:13:26;;;;;;;6.82;2.63;;;;;;;;;;5113650;27;20224;-11
2022/09/08 02:15:58;;;;;;;3.97;2.30;;;;;;;;;;5112716;27;20235;-12
2022/09/08 02:18:26;;;;;;;4.20;2.70;;;;;;;;;;5111595;27;20241;-12
2022/09/08 02:21:01;;;;;;;3.85;2.33;;;;;;;;;;5122853;22;20212;-16
2022/09/08 02:23:29;;;;;;;5.10;2.42;;;;;;;;;;5058848;28;20225;-16
2022/09/08 02:25:57;;;;;;;2.90;2.30;;;;;;;;;;5060988;28;20281;-16
2022/09/08 02:28:24;;;;;;;4.22;2.30;;;;;;;;;;5053504;28;20296;-16
2022/09/08 02:30:51;;;;;;;5.80;2.13;;;;;;;;;;5055934;28;21112;-16
2022/09/08 02:33:19;;;;;;;5.30;2.45;;;;;;;;;;5052813;28;20230;-16
2022/09/08 02:35:46;;;;;;;3.90;2.10;;;;;;;;;;5052606;28;20273;-16
2022/09/08 02:38:15;;;;;;;3.50;2.10;;;;;;;;;;5064002;28;20240;-16
2022/09/08 02:40:42;;;;;;;3.40;2.25;;;;;;;;;;5052351;28;20276;-16
2022/09/08 02:43:09;;;;;;;6.68;2.58;;;;;;;;;;5050133;28;20226;-16
2022/09/08 02:45:38;;;;;;;5.75;3.00;;;;;;;;;;5050427;28;20293;-16
2022/09/08 02:48:06;;;;;;;5.50;2.40;;;;;;;;;;5050763;28;20792;-16
2022/09/08 02:50:33;;;;;;;3.15;2.08;;;;;;;;;;5057396;28;20226;-17
2022/09/08 02:53:00;;;;;;;3.83;2.45;;;;;;;;;;5066663;28;20681;-16
2022/09/08 02:55:29;;;;;;;3.88;2.28;;;;;;;;;;5068296;28;20237;-16
2022/09/08 02:57:57;;;;;;;3.95;2.40;;;;;;;;;;5052552;28;20230;-16
2022/09/08 03:00:30;;;;;;;4.18;2.10;;;;;;;;;;5052368;28;20292;-16
2022/09/08 03:02:58;;;;;;;4.20;2.30;;;;;;;;;;5058759;28;20229;-16
2022/09/08 03:05:25;;;;;;;3.47;2.10;;;;;;;;;;5054769;28;20747;-16
2022/09/08 03:07:53;;;;;;;8.32;2.17;;;;;;;;;;5051851;28;21204;-16
2022/09/08 03:10:23;;;;;;;6.10;2.22;;;;;;;;;;5052508;28;20230;-16
2022/09/08 03:12:53;;;;;;;4.13;2.20;;;;;;;;;;5052187;28;21007;-15
2022/09/08 03:15:20;;;;;;;5.47;2.47;;;;;;;;;;5051450;28;20230;-16
2022/09/08 03:17:48;;;;;;;6.50;2.60;;;;;;;;;;5052302;28;20756;-16
2022/09/08 03:20:15;;;;;;;4.95;1.98;;;;;;;;;;5052329;28;20292;-16
2022/09/08 03:22:42;;;;;;;5.18;2.15;;;;;;;;;;5051047;28;20250;-16
2022/09/08 03:25:10;;;;;;;6.40;2.03;;;;;;;;;;5052835;28;20693;-15
2022/09/08 03:27:37;;;;;;;3.22;1.90;;;;;;;;;;5051729;28;20238;-15
2022/09/08 03:30:06;;;;;;;5.20;2.08;;;;;;;;;;5047351;28;20230;-16
2022/09/08 03:32:34;;;;;;;3.08;1.70;;;;;;;;;;5051562;28;20288;-16
2022/09/08 03:35:01;;;;;;;3.92;1.90;;;;;;;;;;5051773;28;20246;-16
2022/09/08 03:37:28;;;;;;;4.65;2.15;;;;;;;;;;5051666;28;20292;-16
2022/09/08 03:39:56;;;;;;;3.05;1.65;;;;;;;;;;5051834;28;20307;-16
2022/09/08 03:42:23;;;;;;;4.03;1.92;;;;;;;;;;5051473;28;20237;-15
2022/09/08 03:44:50;;;;;;;4.82;1.92;;;;;;;;;;5051821;28;20341;-16
2022/09/08 03:47:19;;;;;;;4.10;1.52;;;;;;;;;;5051161;28;20230;-16
2022/09/08 03:49:47;;;;;;;3.33;1.65;;;;;;;;;;5051598;28;20994;-16
2022/09/08 03:52:14;;;;;;;4.07;1.90;;;;;;;;;;5051647;28;20238;-16
2022/09/08 03:54:47;;;;;;;8.18;1.83;;;;;;;;;;5051527;28;20404;-15
2022/09/08 03:57:15;;;;;;;3.05;1.60;;;;;;;;;;5050926;28;20253;-15
2022/09/08 03:59:43;;;;;;;3.60;2.05;;;;;;;;;;5051614;28;20607;-15
2022/09/08 04:02:10;;;;;;;3.15;1.58;;;;;;;;;;5051651;28;20702;-16
2022/09/08 04:04:39;;;;;;;4.22;1.67;;;;;;;;;;5051396;28;20363;-16
2022/09/08 04:07:07;;;;;;;2.10;1.63;;;;;;;;;;5051212;28;20230;-16
2022/09/08 04:09:34;;;;;;;3.17;1.45;;;;;;;;;;5050431;28;20242;-16
2022/09/08 04:12:02;;;;;;;2.33;1.58;;;;;;;;;;5051525;28;20279;-15
2022/09/08 04:14:30;;;;;;;3.92;1.95;;;;;;;;;;5051206;28;20320;-16
2022/09/08 04:16:57;;;;;;;2.58;1.73;;;;;;;;;;5051480;28;20302;-15
2022/09/08 04:19:25;;;;;;;2.45;1.40;;;;;;;;;;5050801;28;21048;-15
2022/09/08 04:21:53;;;;;;;4.53;1.58;;;;;;;;;;5050072;28;20245;-16
2022/09/08 04:24:21;;;;;;;2.05;1.48;;;;;;;;;;5051227;28;21062;-16
2022/09/08 04:26:48;;;;;;;3.42;1.75;;;;;;;;;;5051289;28;20284;-16
2022/09/08 04:29:16;;;;;;;3.33;1.77;;;;;;;;;;5050612;28;20709;-16
2022/09/08 04:31:43;;;;;;;4.97;2.00;;;;;;;;;;5050399;28;20287;-16
2022/09/08 04:34:10;;;;;;;4.35;1.63;;;;;;;;;;5050528;28;20744;-17
2022/09/08 04:36:37;;;;;;;3.47;1.70;;;;;;;;;;5051223;28;20264;-16
2022/09/08 04:39:06;;;;;;;2.17;1.55;;;;;;;;;;5050790;28;20238;-16
2022/09/08 04:41:33;;;;;;;4.93;1.90;;;;;;;;;;5050676;28;20713;-16
2022/09/08 04:44:02;;;;;;;2.53;1.65;;;;;;;;;;5050950;28;20287;-16
2022/09/08 04:46:29;;;;;;;4.40;1.60;;;;;;;;;;5050509;28;20226;-16
2022/09/08 04:48:57;;;;;;;2.70;1.67;;;;;;;;;;5050507;28;21365;-16
2022/09/08 04:51:24;;;;;;;3.97;1.45;;;;;;;;;;5050965;28;20234;-16
2022/09/08 04:53:52;;;;;;;3.83;1.73;;;;;;;;;;5049970;28;20233;-16
2022/09/08 04:56:21;;;;;;;2.78;1.50;;;;;;;;;;5050789;28;20227;-16
2022/09/08 04:58:48;;;;;;;4.22;1.67;;;;;;;;;;5050559;28;20791;-16
2022/09/08 05:01:23;;;;;;;3.05;1.55;;;;;;;;;;5050683;28;20874;-16
2022/09/08 05:03:51;;;;;;;2.78;1.85;;;;;;;;;;5050630;28;20280;-16
2022/09/08 05:06:19;;;;;;;2.90;1.67;;;;;;;;;;5050911;28;20234;-16
2022/09/08 05:08:47;;;;;;;3.15;1.75;;;;;;;;;;5050190;28;20250;-15
2022/09/08 05:11:14;;;;;;;4.10;1.90;;;;;;;;;;5050676;28;20292;-16
2022/09/08 05:13:43;;;;;;;3.67;2.13;;;;;;;;;;5050626;28;20229;-16
2022/09/08 05:16:11;;;;;;;3.13;1.92;;;;;;;;;;5049536;28;20226;-16
2022/09/08 05:18:38;;;;;;;4.75;2.17;;;;;;;;;;5050483;28;20260;-16
2022/09/08 05:21:06;;;;;;;5.85;2.22;;;;;;;;;;5049968;28;20725;-16
2022/09/08 05:23:33;;;;;;;3.25;2.15;;;;;;;;;;5050514;28;20288;-16
2022/09/08 05:26:01;;;;;;;3.92;2.10;;;;;;;;;;5049363;28;21013;-16
2022/09/08 05:28:29;;;;;;;4.53;1.95;;;;;;;;;;5050389;28;20231;-16
2022/09/08 05:30:57;;;;;;;5.35;2.75;;;;;;;;;;5050380;28;20241;-15
2022/09/08 05:33:25;;;;;;;3.58;2.00;;;;;;;;;;5062438;28;20229;-15
2022/09/08 05:35:52;;;;;;;4.90;2.50;;;;;;;;;;5050597;28;20226;-16
2022/09/08 05:38:20;;;;;;;6.18;2.10;;;;;;;;;;5060803;28;20233;-16
2022/09/08 05:40:47;;;;;;;4.47;2.35;;;;;;;;;;5066827;28;20277;-16
2022/09/08 05:43:14;;;;;;;5.35;2.08;;;;;;;;;;5049514;28;20295;-16
2022/09/08 05:45:43;;;;;;;5.30;2.60;;;;;;;;;;5052055;28;20572;-16
2022/09/08 05:48:12;;;;;;;5.45;2.75;;;;;;;;;;5054058;28;20325;-16
2022/09/08 05:50:41;;;;;;;7.35;2.63;;;;;;;;;;5055857;28;20300;-15
2022/09/08 05:53:08;;;;;;;6.75;2.70;;;;;;;;;;5059487;28;20238;-16
2022/09/08 05:55:35;;;;;;;4.22;2.22;;;;;;;;;;5056852;28;20740;-16
2022/09/08 05:58:03;;;;;;;6.22;2.50;;;;;;;;;;5055571;28;20331;-16
2022/09/08 06:00:53;;;;;;;3.90;2.45;;;;;;;;;;5052722;28;20288;-15
2022/09/08 06:03:22;;;;;;;3.00;1.83;;;;;;;;;;5058464;28;20230;-16
2022/09/08 06:05:49;;;;;;;5.78;2.17;;;;;;;;;;5053156;28;20242;-16
2022/09/08 06:08:16;;;;;;;5.10;2.20;;;;;;;;;;5054863;28;21108;-16
2022/09/08 06:10:44;;;;;;;4.50;2.38;;;;;;;;;;5057150;28;20286;-15
2022/09/08 06:13:15;;;;;;;4.50;1.80;;;;;;;;;;5052983;28;20604;-16
2022/09/08 06:15:42;;;;;;;3.17;1.65;;;;;;;;;;5052927;28;20331;-16
2022/09/08 06:18:09;;;;;;;4.43;1.60;;;;;;;;;;5056851;28;20237;-16
2022/09/08 06:20:38;;;;;;;5.82;1.90;;;;;;;;;;5055814;28;20288;-16
2022/09/08 06:23:05;;;;;;;5.65;2.10;;;;;;;;;;5053018;28;20260;-16
2022/09/08 06:25:38;;;;;;;4.82;2.17;;;;;;;;;;5052634;28;20585;-15
2022/09/08 06:28:08;;;;;;;5.53;1.90;;;;;;;;;;5055372;28;20328;-15
2022/09/08 06:30:35;;;;;;;3.35;1.60;;;;;;;;;;5053855;28;20245;-15
2022/09/08 06:33:24;;;;;;;3.78;1.95;;;;;;;;;;5051107;28;20317;-15
2022/09/08 06:35:56;;;;;;;7.28;2.05;;;;;;;;;;5054113;28;20975;-16
2022/09/08 06:38:23;;;;;;;4.93;2.05;;;;;;;;;;5054841;28;21064;-16
2022/09/08 06:40:51;;;;;;;6.32;2.20;;;;;;;;;;5054854;28;20296;-16
2022/09/08 06:43:19;;;;;;;6.93;2.33;;;;;;;;;;5042305;28;20226;-16
2022/09/08 06:45:47;;;;;;;4.53;2.15;;;;;;;;;;5052248;28;20308;-16
2022/09/08 06:48:22;;;;;;;6.32;2.13;;;;;;;;;;5052498;28;20261;-16
2022/09/08 06:50:54;;;;;;;5.57;2.30;;;;;;;;;;5051735;28;20238;-16
2022/09/08 06:53:23;;;;;;;8.73;1.85;;;;;;;;;;5053919;28;20257;-15
2022/09/08 06:55:52;;;;;;;6.00;1.83;;;;;;;;;;5052692;28;20226;-16
2022/09/08 06:58:41;;;;;;;2.63;1.70;;;;;;;;;;5052105;28;20368;-15
2022/09/08 07:01:10;;;;;;;7.10;1.77;;;;;;;;;;5059017;28;20225;-16
2022/09/08 07:03:43;;;;;;;5.40;1.67;;;;;;;;;;5052671;28;20970;-16
2022/09/08 07:06:10;;;;;;;5.90;1.83;;;;;;;;;;5051796;28;20235;-15
2022/09/08 07:08:52;;;;;;;3.30;1.70;;;;;;;;;;5051719;28;20230;-16
2022/09/08 07:11:24;;;;;;;3.88;1.50;;;;;;;;;;5056591;28;20238;-16
2022/09/08 07:13:53;;;;;;;6.05;1.70;;;;;;;;;;5057217;28;20238;-16
2022/09/08 07:16:21;;;;;;;4.10;1.40;;;;;;;;;;5053238;28;20296;-16
2022/09/08 07:18:50;;;;;;;3.47;1.38;;;;;;;;;;5056122;28;20233;-14
2022/09/08 07:21:19;;;;;;;4.35;1.40;;;;;;;;;;5052853;28;20647;-14
2022/09/08 07:23:47;;;;;;;3.35;1.60;;;;;;;;;;5051513;28;20226;-14
2022/09/08 07:26:17;;;;;;;3.17;1.73;;;;;;;;;;5055532;28;20701;-15
2022/09/08 07:28:46;;;;;;;3.65;1.42;;;;;;;;;;5052358;28;20784;-15
2022/09/08 07:31:16;;;;;;;4.15;1.40;;;;;;;;;;5059117;28;20291;-14
2022/09/08 07:33:44;;;;;;;3.08;1.50;;;;;;;;;;5062912;28;20697;-15
2022/09/08 07:36:12;;;;;;;4.40;1.52;;;;;;;;;;5052795;28;21055;-15
2022/09/08 07:38:40;;;;;;;4.13;1.40;;;;;;;;;;5052189;28;20227;-15
2022/09/08 07:41:08;;;;;;;3.20;1.88;;;;;;;;;;5054215;28;20238;-14
2022/09/08 07:43:35;;;;;;;5.35;1.70;;;;;;;;;;5051585;28;20223;-15
2022/09/08 07:46:13;;;;;;;2.80;1.60;;;;;;;;;;5050924;28;20241;-15
2022/09/08 07:48:42;;;;;;;4.90;1.73;;;;;;;;;;5051122;28;20237;-16
2022/09/08 07:51:10;;;;;;;3.60;1.50;;;;;;;;;;5059568;28;21029;-15
2022/09/08 07:54:01;;;;;;;2.80;1.65;;;;;;;;;;5051334;28;20698;-14
2022/09/08 07:56:31;;;;;;;4.60;1.73;;;;;;;;;;5036003;28;20284;-15
2022/09/08 07:59:20;;;;;;;4.20;1.52;;;;;;;;;;5051303;28;20242;-17
2022/09/08 08:01:51;;;;;;;4.70;1.75;;;;;;;;;;5056680;28;20388;-16
2022/09/08 08:04:37;;;;;;;3.90;1.40;;;;;;;;;;5051914;28;20234;-16
2022/09/08 08:07:05;;;;;;;10.85;1.70;;;;;;;;;;5039482;28;20289;-16
2022/09/08 08:09:33;;;;;;;4.15;1.60;;;;;;;;;;5050273;28;20288;-16
2022/09/08 08:12:02;;;;;;;7.05;2.13;;;;;;;;;;5053484;28;20317;-16
2022/09/08 08:14:32;;;;;;;4.60;1.55;;;;;;;;;;5060156;28;20285;-15
2022/09/08 08:17:04;;;;;;;9.02;1.60;;;;;;;;;;5038126;28;20234;-15
2022/09/08 08:19:37;;;;;;;2.80;1.38;;;;;;;;;;5050977;28;20230;-15
2022/09/08 08:22:06;;;;;;;6.22;1.42;;;;;;;;;;5051135;28;20605;-15
2022/09/08 08:24:35;;;;;;;3.60;1.50;;;;;;;;;;5056431;28;21023;-15
2022/09/08 08:27:03;;;;;;;4.15;1.58;;;;;;;;;;5051127;28;20242;-15
2022/09/08 08:29:38;;;;;;;5.03;1.70;;;;;;;;;;5052047;28;20238;-16
2022/09/08 08:32:10;;;;;;;6.75;1.40;;;;;;;;;;5055214;28;20279;-15
2022/09/08 08:34:58;;;;;;;3.83;1.15;;;;;;;;;;5059779;28;20327;-16
2022/09/08 08:37:27;;;;;;;2.55;1.73;;;;;;;;;;5061385;28;20734;-16
2022/09/08 08:39:55;;;;;;;5.55;1.52;;;;;;;;;;5058243;28;20279;-16
2022/09/08 08:42:29;;;;;;;7.07;1.50;;;;;;;;;;5056045;28;20804;-15
2022/09/08 08:45:00;;;;;;;5.95;2.10;;;;;;;;;;5055863;28;20237;-15
2022/09/08 08:48:00;;;;;;;12.02;1.70;;;;;;;;;;5047057;28;20306;-18
2022/09/08 08:50:33;;;;;;;7.03;1.60;;;;;;;;;;5040543;28;20379;-17
2022/09/08 08:53:09;;;;;;;10.18;2.30;;;;;;;;;;5041740;28;20253;-14
2022/09/08 08:55:41;;;;;;;7.38;2.15;;;;;;;;;;5045959;28;20226;-16
2022/09/08 08:58:16;;;;;;;5.38;1.90;;;;;;;;;;5046272;28;20276;-15
2022/09/08 09:01:05;;;;;;;4.03;2.30;;;;;;;;;;5046264;28;20497;-17
2022/09/08 09:03:39;;;;;;;7.20;2.30;;;;;;;;;;5045993;28;20233;-15
2022/09/08 09:06:15;;;;;;;7.57;2.10;;;;;;;;;;5047506;28;20705;-15
2022/09/08 09:08:51;;;;;;;4.18;1.98;;;;;;;;;;5046035;28;20292;-14
2022/09/08 09:11:34;;;;;;;3.15;1.75;;;;;;;;;;5053173;28;20236;-16
2022/09/08 09:14:18;;;;;;;5.53;1.83;;;;;;;;;;5040993;28;20284;-16
2022/09/08 09:16:59;;;;;;;3.80;2.20;;;;;;;;;;5047039;28;21253;-17
2022/09/08 09:19:43;;;;;;;6.93;2.20;;;;;;;;;;5049601;28;20226;-16
2022/09/08 09:22:13;;;;;;;6.72;2.42;;;;;;;;;;5051839;28;20242;-17
2022/09/08 09:24:43;;;;;;;5.63;2.45;;;;;;;;;;5055610;28;20296;-16
2022/09/08 09:27:18;;;;;;;8.48;2.75;;;;;;;;;;5051273;28;20318;-16
2022/09/08 09:29:45;;;;;;;4.60;2.10;;;;;;;;;;5053688;28;20713;-17
2022/09/08 09:32:30;;;;;;;5.05;2.38;;;;;;;;;;5056697;28;20442;-15
2022/09/08 09:35:02;;;;;;;10.57;2.67;;;;;;;;;;5066753;28;20225;-15
2022/09/08 09:37:37;;;;;;;6.22;2.65;;;;;;;;;;5070414;28;20234;-15
2022/09/08 09:40:09;;;;;;;7.65;2.80;;;;;;;;;;5056560;28;20236;-17
2022/09/08 09:42:43;;;;;;;4.35;2.63;;;;;;;;;;5067985;28;20230;-17
2022/09/08 09:45:31;;;;;;;3.20;2.63;;;;;;;;;;5067153;28;20283;-16
2022/09/08 09:48:12;;;;;;;4.32;3.05;;;;;;;;;;5017930;28;20258;-17
2022/09/08 09:50:44;;;;;;;6.82;3.13;;;;;;;;;;5047302;28;20233;-17
2022/09/08 09:53:18;;;;;;;7.18;2.95;;;;;;;;;;5070025;28;20241;-16
2022/09/08 09:56:17;;;;;;;5.05;2.92;;;;;;;;;;5066172;28;20344;-17
2022/09/08 09:58:52;;;;;;;6.03;3.15;;;;;;;;;;5069408;28;21060;-17
2022/09/08 10:01:28;;;;;;;5.55;3.10;;;;;;;;;;5058874;28;20324;-17
2022/09/08 10:03:58;;;;;;;4.75;3.00;;;;;;;;;;5057115;28;20303;-16
2022/09/08 10:06:28;;;;;;;4.07;2.83;;;;;;;;;;5069994;28;20225;-16
2022/09/08 10:09:10;;;;;;;3.65;2.60;;;;;;;;;;5069843;28;20229;-16
2022/09/08 10:12:01;;;;;;;3.63;2.45;;;;;;;;;;5062703;28;20583;-14
2022/09/08 10:14:33;;;;;;;7.25;2.60;;;;;;;;;;5035326;28;20244;-17
2022/09/08 10:17:23;;;;;;;2.88;2.50;;;;;;;;;;5066799;28;20226;-17
2022/09/08 10:20:09;;;;;;;3.40;2.22;;;;;;;;;;5054020;28;20257;-15
2022/09/08 10:23:00;;;;;;;3.97;2.40;;;;;;;;;;5051692;28;20292;-15
2022/09/08 10:25:42;;;;;;;4.95;2.60;;;;;;;;;;5004886;28;20338;-15
2022/09/08 10:28:13;;;;;;;5.47;2.83;;;;;;;;;;5056570;28;20260;-15
2022/09/08 10:31:04;;;;;;;3.97;2.50;;;;;;;;;;5064660;28;21061;-15
2022/09/08 10:33:48;;;;;;;3.08;2.25;;;;;;;;;;5043548;28;20233;-15
2022/09/08 10:36:15;;;;;;;5.78;2.60;;;;;;;;;;5065631;28;20701;-15
2022/09/08 10:38:54;;;;;;;3.67;2.33;;;;;;;;;;5072929;28;20233;-15
2022/09/08 10:41:36;;;;;;;3.42;2.28;;;;;;;;;;5057989;28;20249;-16
2022/09/08 10:44:08;;;;;;;3.72;2.20;;;;;;;;;;5063572;28;20230;-15
2022/09/08 10:46:44;;;;;;;3.30;2.70;;;;;;;;;;5060976;28;20233;-15
2022/09/08 10:49:18;;;;;;;5.50;2.55;;;;;;;;;;5071817;28;20233;-15
2022/09/08 10:52:00;;;;;;;4.25;2.15;;;;;;;;;;5068804;28;20237;-15
2022/09/08 10:54:35;;;;;;;3.53;2.30;;;;;;;;;;5069608;28;20280;-15
2022/09/08 10:57:08;;;;;;;4.30;2.00;;;;;;;;;;5056154;28;20952;-15
2022/09/08 10:59:44;;;;;;;3.35;2.20;;;;;;;;;;5059540;28;21019;-15
2022/09/08 11:02:22;;;;;;;3.22;2.25;;;;;;;;;;5057145;28;20225;-16
2022/09/08 11:05:05;;;;;;;3.45;2.30;;;;;;;;;;5072996;28;20282;-15
2022/09/08 11:07:40;;;;;;;2.95;2.38;;;;;;;;;;5044866;28;20297;-15
2022/09/08 11:10:12;;;;;;;6.95;2.88;;;;;;;;;;5067360;28;20237;-15
2022/09/08 11:12:59;;;;;;;6.15;2.50;;;;;;;;;;5072011;28;20328;-15
2022/09/08 11:15:34;;;;;;;3.08;2.10;;;;;;;;;;5063810;28;20234;-15
2022/09/08 11:18:05;;;;;;;4.13;2.15;;;;;;;;;;5054293;28;20288;-15
2022/09/08 11:20:34;;;;;;;4.93;2.58;;;;;;;;;;5068952;28;20279;-15
2022/09/08 11:23:04;;;;;;;3.60;2.50;;;;;;;;;;5065755;28;21057;-15
2022/09/08 11:25:34;;;;;;;4.57;2.60;;;;;;;;;;5068005;28;20286;-15
2022/09/08 11:28:05;;;;;;;2.97;2.20;;;;;;;;;;5072596;28;20746;-15
2022/09/08 11:30:35;;;;;;;4.07;2.45;;;;;;;;;;5059476;28;20237;-15
2022/09/08 11:33:07;;;;;;;4.60;3.00;;;;;;;;;;5072009;28;20560;-15
2022/09/08 11:35:49;;;;;;;3.25;2.10;;;;;;;;;;5071924;28;21022;-16
2022/09/08 11:38:19;;;;;;;3.65;2.55;;;;;;;;;;5055095;28;21135;-15
2022/09/08 11:40:56;;;;;;;3.60;2.13;;;;;;;;;;5062847;28;20233;-15
2022/09/08 11:43:32;;;;;;;3.03;2.00;;;;;;;;;;5067050;28;20377;-15
2022/09/08 11:46:07;;;;;;;2.95;2.10;;;;;;;;;;5051476;28;20238;-15
2022/09/08 11:48:43;;;;;;;4.65;2.55;;;;;;;;;;5071716;28;20915;-15
2022/09/08 11:51:20;;;;;;;4.22;2.10;;;;;;;;;;5062237;28;20233;-15
2022/09/08 11:54:26;;;;;;;3.17;1.80;;;;;;;;;;5045547;28;20337;-15
2022/09/08 11:57:21;;;;;;;5.80;2.00;;;;;;;;;;5071518;28;20236;-15
2022/09/08 11:59:52;;;;;;;5.82;1.95;;;;;;;;;;5071550;28;20279;-15
2022/09/08 12:02:35;;;;;;;3.40;1.70;;;;;;;;;;5058970;28;20233;-15
2022/09/08 12:05:04;;;;;;;1.70;1.42;;;;;;;;;;5071744;28;20254;-15
2022/09/08 12:08:06;;;;;;;2.97;1.52;;;;;;;;;;5072159;28;20249;-15
2022/09/08 12:10:38;;;;;;;2.40;1.35;;;;;;;;;;5065390;28;20307;-15
2022/09/08 12:13:12;;;;;;;4.93;1.52;;;;;;;;;;5066986;28;20288;-15
2022/09/08 12:15:53;;;;;;;2.72;1.83;;;;;;;;;;5071812;28;20257;-15
2022/09/08 12:18:25;;;;;;;4.60;1.67;;;;;;;;;;5058661;28;20230;-15
2022/09/08 12:21:00;;;;;;;2.63;1.35;;;;;;;;;;5051749;28;20230;-15
2022/09/08 12:23:31;;;;;;;4.30;1.55;;;;;;;;;;5051332;28;20287;-15
2022/09/08 12:26:13;;;;;;;4.38;1.55;;;;;;;;;;5054334;28;20230;-15
2022/09/08 12:28:53;;;;;;;7.35;1.77;;;;;;;;;;5049399;28;20333;-17
2022/09/08 12:31:24;;;;;;;4.50;1.40;;;;;;;;;;5052102;28;20628;-15
2022/09/08 12:33:58;;;;;;;4.30;1.10;;;;;;;;;;5049389;28;20226;-15
2022/09/08 12:36:25;;;;;;;3.47;1.67;;;;;;;;;;5050230;28;20284;-15
2022/09/08 12:39:12;;;;;;;3.90;1.70;;;;;;;;;;5051985;28;20230;-15
2022/09/08 12:41:47;;;;;;;8.70;1.90;;;;;;;;;;5051275;28;20230;-14
2022/09/08 12:44:22;;;;;;;8.52;2.15;;;;;;;;;;5049856;28;20693;-15
2022/09/08 12:46:59;;;;;;;9.70;1.77;;;;;;;;;;5051179;28;20272;-15
2022/09/08 12:49:44;;;;;;;6.43;2.47;;;;;;;;;;5051219;28;20240;-15
2022/09/08 12:52:14;;;;;;;6.07;2.28;;;;;;;;;;5048170;28;21068;-15
2022/09/08 12:54:44;;;;;;;4.85;2.10;;;;;;;;;;5063318;28;20322;-15
2022/09/08 12:57:26;;;;;;;3.65;1.70;;;;;;;;;;5051752;28;20297;-15
2022/09/08 12:59:56;;;;;;;4.72;1.83;;;;;;;;;;5060419;28;20636;-15
2022/09/08 13:02:28;;;;;;;3.70;1.65;;;;;;;;;;5057934;28;20657;-16
2022/09/08 13:05:01;;;;;;;3.15;1.50;;;;;;;;;;5052922;28;20673;-15
2022/09/08 13:07:30;;;;;;;2.80;1.65;;;;;;;;;;5062596;28;20284;-15
2022/09/08 13:10:05;;;;;;;3.28;1.80;;;;;;;;;;5050378;28;20308;-15
2022/09/08 13:12:57;;;;;;;5.68;1.60;;;;;;;;;;5050199;28;20723;-15
2022/09/08 13:15:25;;;;;;;3.63;1.52;;;;;;;;;;5030600;28;20226;-15
2022/09/08 13:17:54;;;;;;;5.22;1.63;;;;;;;;;;5058966;28;20344;-15
2022/09/08 13:20:27;;;;;;;3.90;1.52;;;;;;;;;;5053349;28;20234;-15
2022/09/08 13:22:59;;;;;;;5.93;1.67;;;;;;;;;;5056874;28;20250;-18
2022/09/08 13:25:27;;;;;;;7.03;1.65;;;;;;;;;;5051070;28;20229;-18
2022/09/08 13:28:09;;;;;;;8.93;1.90;;;;;;;;;;5048372;28;20318;-16
2022/09/08 13:30:37;;;;;;;3.95;1.88;;;;;;;;;;5044074;28;20234;-15
2022/09/08 13:33:11;;;;;;;5.15;1.63;;;;;;;;;;5047259;28;20394;-16
2022/09/08 13:35:45;;;;;;;5.00;1.50;;;;;;;;;;5045584;28;20233;-15
2022/09/08 13:38:17;;;;;;;4.85;1.50;;;;;;;;;;5048057;28;20363;-15
2022/09/08 13:40:50;;;;;;;2.50;1.40;;;;;;;;;;5044692;28;20260;-15
2022/09/08 13:43:32;;;;;;;4.90;1.75;;;;;;;;;;5051810;28;20724;-15
2022/09/08 13:46:09;;;;;;;5.95;1.60;;;;;;;;;;5048251;28;20229;-17
2022/09/08 13:48:40;;;;;;;5.88;1.88;;;;;;;;;;5045361;28;20223;-16
2022/09/08 13:51:22;;;;;;;3.00;1.40;;;;;;;;;;5045716;28;20290;-17
2022/09/08 13:53:57;;;;;;;3.92;1.33;;;;;;;;;;5044516;28;20813;-15
2022/09/08 13:56:27;;;;;;;3.97;1.42;;;;;;;;;;5044904;28;20245;-15
2022/09/08 13:58:55;;;;;;;4.05;1.20;;;;;;;;;;5046965;28;20238;-17
2022/09/08 14:01:37;;;;;;;7.53;1.38;;;;;;;;;;5043869;28;20233;-16
2022/09/08 14:04:08;;;;;;;6.82;1.10;;;;;;;;;;5045174;28;20281;-17
2022/09/08 14:06:40;;;;;;;4.55;1.20;;;;;;;;;;5044291;28;20241;-15
2022/09/08 14:09:13;;;;;;;12.20;1.42;;;;;;;;;;5050049;28;20234;-17
2022/09/08 14:11:44;;;;;;;3.42;1.02;;;;;;;;;;5048425;28;20740;-17
2022/09/08 14:14:25;;;;;;;6.45;1.05;;;;;;;;;;5049148;28;20312;-16
2022/09/08 14:16:52;;;;;;;13.65;1.40;;;;;;;;;;5044171;28;21093;-16
2022/09/08 14:19:22;;;;;;;4.45;1.80;;;;;;;;;;5049602;28;20238;-16
2022/09/08 14:21:51;;;;;;;4.97;1.50;;;;;;;;;;5049145;28;20246;-18
2022/09/08 14:24:26;;;;;;;5.50;1.30;;;;;;;;;;5049827;28;20285;-16
2022/09/08 14:26:57;;;;;;;5.50;1.30;;;;;;;;;;5048015;28;20237;-16
2022/09/08 14:29:33;;;;;;;6.13;1.30;;;;;;;;;;5049023;28;20230;-16
2022/09/08 14:32:03;;;;;;;3.70;1.00;;;;;;;;;;5050230;28;20284;-16
2022/09/08 14:34:31;;;;;;;3.35;0.90;;;;;;;;;;5047937;28;20237;-16
2022/09/08 14:37:01;;;;;;;2.40;1.08;;;;;;;;;;5049028;28;20606;-19
2022/09/08 14:39:31;;;;;;;6.10;0.82;;;;;;;;;;5047326;28;20324;-16
2022/09/08 14:42:15;;;;;;;3.38;1.15;;;;;;;;;;5051929;28;20230;-18
2022/09/08 14:44:48;;;;;;;7.10;1.40;;;;;;;;;;5053938;28;20768;-15
2022/09/08 14:47:24;;;;;;;3.10;1.15;;;;;;;;;;5053057;28;21698;-17
2022/09/08 14:49:58;;;;;;;4.95;1.08;;;;;;;;;;5037164;28;21037;-18
2022/09/08 14:52:30;;;;;;;3.78;1.35;;;;;;;;;;5059339;28;20234;-16
2022/09/08 14:55:05;;;;;;;5.47;1.20;;;;;;;;;;5053534;28;20237;-16
2022/09/08 14:57:33;;;;;;;4.60;1.38;;;;;;;;;;5050428;28;20243;-15
2022/09/08 15:00:15;;;;;;;5.07;1.50;;;;;;;;;;5058063;28;20996;-15
2022/09/08 15:02:47;;;;;;;4.78;1.48;;;;;;;;;;5054124;28;20850;-15
2022/09/08 15:05:16;;;;;;;2.47;0.93;;;;;;;;;;5058141;28;20234;-15
2022/09/08 15:07:44;;;;;;;6.10;1.75;;;;;;;;;;5056715;28;20716;-15
2022/09/08 15:10:16;;;;;;;5.07;1.13;;;;;;;;;;5056956;28;20263;-15
2022/09/08 15:12:54;;;;;;;5.10;1.17;;;;;;;;;;5055424;28;20241;-15
2022/09/08 15:15:29;;;;;;;7.80;1.45;;;;;;;;;;5057191;28;20237;-16
2022/09/08 15:17:56;;;;;;;5.32;1.30;;;;;;;;;;5055170;28;20237;-16